createdAt,value
2023-01-15T00:02:13.091Z,74514.09
2023-01-15T00:04:41.583Z,71442.94
2023-01-15T00:07:10.138Z,70142.09
2023-01-15T00:09:38.802Z,64431.16
2023-01-15T00:12:07.422Z,63886.69
2023-01-15T00:14:37.275Z,60428.59
2023-01-15T00:17:05.875Z,59130.00
2023-01-15T00:19:34.209Z,58747.66
2023-01-15T00:22:02.589Z,57254.63
2023-01-15T00:24:48.500Z,57664.66
2023-01-15T00:27:34.560Z,57296.44
2023-01-15T00:30:04.695Z,56848.66
2023-01-15T00:32:33.167Z,56490.47
2023-01-15T00:35:01.778Z,56207.94
2023-01-15T00:37:30.155Z,55871.69
2023-01-15T00:39:58.594Z,55965.19
2023-01-15T00:42:27.029Z,55778.19
2023-01-15T00:44:56.369Z,55742.38
2023-01-15T00:47:26.237Z,55434.03
2023-01-15T00:49:54.487Z,55543.44
2023-01-15T00:52:22.963Z,55559.34
2023-01-15T00:54:51.309Z,55479.78
2023-01-15T00:57:19.687Z,55551.41
2023-01-15T00:59:48.383Z,55485.75
2023-01-15T01:02:17.191Z,55453.94
2023-01-15T01:04:47.481Z,55459.91
2023-01-15T01:07:17.077Z,55360.44
2023-01-15T01:09:45.625Z,55368.41
2023-01-15T01:12:14.253Z,55428.06
2023-01-15T01:14:44.148Z,55475.81
2023-01-15T01:17:12.750Z,55485.75
2023-01-15T01:19:41.482Z,55404.19
2023-01-15T01:22:11.358Z,55348.50
2023-01-15T01:24:39.688Z,55310.72
2023-01-15T01:27:08.840Z,55340.56
2023-01-15T01:29:37.301Z,55266.94
2023-01-15T01:32:06.251Z,55221.19
2023-01-15T01:34:34.777Z,55266.94
2023-01-15T01:37:03.217Z,55171.47
2023-01-15T01:39:32.944Z,55109.81
2023-01-15T01:42:01.370Z,55151.59
2023-01-15T01:45:13.072Z,55105.84
2023-01-15T01:47:41.921Z,55123.75
2023-01-15T01:50:15.164Z,55103.84
2023-01-15T01:52:49.429Z,55095.88
2023-01-15T01:55:23.205Z,55157.56
2023-01-15T01:57:56.998Z,55125.72
2023-01-15T02:00:26.223Z,55165.50
2023-01-15T02:02:55.809Z,55185.41
2023-01-15T02:05:31.625Z,55221.19
2023-01-15T02:08:01.174Z,55229.16
2023-01-15T02:10:31.871Z,55288.84
2023-01-15T02:13:05.443Z,55330.59
2023-01-15T02:15:39.908Z,55286.84
2023-01-15T02:18:18.573Z,55320.66
2023-01-15T02:20:51.814Z,55306.72
2023-01-15T02:23:34.763Z,55288.84
2023-01-15T02:26:27.942Z,55338.56
2023-01-15T02:29:00.766Z,55350.50
2023-01-15T02:31:34.722Z,55308.72
2023-01-15T02:34:08.875Z,55274.91
2023-01-15T02:36:42.495Z,55272.91
2023-01-15T02:39:21.418Z,55322.66
2023-01-15T02:41:54.512Z,55392.25
2023-01-15T02:44:30.884Z,55366.41
2023-01-15T02:47:04.582Z,55334.59
2023-01-15T02:49:34.083Z,55316.69
2023-01-15T02:52:10.433Z,55316.69
2023-01-15T02:54:44.876Z,55330.59
2023-01-15T02:57:16.459Z,55360.44
2023-01-15T02:59:53.860Z,55390.28
2023-01-15T03:02:28.396Z,55449.94
2023-01-15T03:05:02.472Z,55527.53
2023-01-15T03:07:38.578Z,55646.88
2023-01-15T03:10:08.594Z,55684.69
2023-01-15T03:12:59.663Z,55794.09
2023-01-15T03:15:55.745Z,55792.13
2023-01-15T03:18:26.889Z,55808.03
2023-01-15T03:21:00.739Z,55897.56
2023-01-15T03:23:31.551Z,56052.72
2023-01-15T03:26:02.381Z,56124.34
2023-01-15T03:28:34.578Z,56144.25
2023-01-15T03:31:04.550Z,56327.31
2023-01-15T03:33:33.041Z,56347.19
2023-01-15T03:36:02.322Z,56347.19
2023-01-15T03:38:46.998Z,56291.50
2023-01-15T03:41:31.232Z,56192.00
2023-01-15T03:44:09.380Z,56207.94
2023-01-15T03:46:52.802Z,55963.22
2023-01-15T03:49:32.734Z,56006.97
2023-01-15T03:52:10.097Z,55851.78
2023-01-15T03:54:46.645Z,55738.41
2023-01-15T03:57:22.476Z,55740.38
2023-01-15T03:59:56.074Z,55716.50
2023-01-15T04:02:28.606Z,55778.19
2023-01-15T04:04:59.858Z,55746.34
2023-01-15T04:07:31.991Z,55774.22
2023-01-15T04:10:00.617Z,55766.25
2023-01-15T04:12:29.344Z,55786.16
2023-01-15T04:14:58.586Z,55833.88
2023-01-15T04:17:28.509Z,55897.56
2023-01-15T04:19:57.025Z,55879.66
2023-01-15T04:22:25.943Z,55949.28
2023-01-15T04:24:55.250Z,55889.59
2023-01-15T04:27:23.875Z,55853.78
2023-01-15T04:29:52.248Z,55843.84
2023-01-15T04:32:20.915Z,55971.16
2023-01-15T04:34:51.343Z,56005.00
2023-01-15T04:37:19.950Z,56050.75
2023-01-15T04:39:48.575Z,56096.50
2023-01-15T04:42:36.143Z,56176.09
2023-01-15T04:45:04.856Z,56118.38
2023-01-15T04:47:33.314Z,56088.53
2023-01-15T04:50:03.142Z,56128.34
2023-01-15T04:52:31.619Z,56156.19
2023-01-15T04:54:59.944Z,56160.19
2023-01-15T04:57:28.317Z,56205.94
2023-01-15T04:59:56.730Z,56128.34
2023-01-15T05:02:25.156Z,56132.31
2023-01-15T05:04:53.668Z,56014.94
2023-01-15T05:07:23.462Z,55933.38
2023-01-15T05:09:53.602Z,55800.06
2023-01-15T05:12:22.132Z,55821.94
2023-01-15T05:14:50.895Z,55792.13
2023-01-15T05:17:19.873Z,55770.22
2023-01-15T05:19:48.566Z,55670.75
2023-01-15T05:22:17.154Z,55599.16
2023-01-15T05:24:46.858Z,55569.31
2023-01-15T05:27:15.249Z,55545.44
2023-01-15T05:29:43.666Z,55507.63
2023-01-15T05:32:13.213Z,55374.38
2023-01-15T05:34:41.948Z,55372.38
2023-01-15T05:37:10.280Z,55346.50
2023-01-15T05:39:38.781Z,55249.06
2023-01-15T05:42:08.833Z,55185.41
2023-01-15T05:44:37.488Z,55253.03
2023-01-15T05:47:07.772Z,54998.44
2023-01-15T05:49:36.298Z,55042.19
2023-01-15T05:52:05.385Z,55034.22
2023-01-15T05:54:35.507Z,55042.19
2023-01-15T05:57:04.837Z,54970.59
2023-01-15T05:59:34.838Z,54968.59
2023-01-15T06:02:03.213Z,54982.53
2023-01-15T06:04:31.909Z,54986.50
2023-01-15T06:07:00.564Z,54960.66
2023-01-15T06:09:29.754Z,54986.50
2023-01-15T06:11:58.239Z,54992.47
2023-01-15T06:14:27.241Z,55014.34
2023-01-15T06:16:57.029Z,55002.41
2023-01-15T06:19:25.412Z,54966.59
2023-01-15T06:21:54.201Z,54966.59
2023-01-15T06:24:23.313Z,55002.41
2023-01-15T06:26:51.987Z,55020.31
2023-01-15T06:29:20.711Z,54994.47
2023-01-15T06:31:49.724Z,55010.38
2023-01-15T06:34:19.773Z,55010.38
2023-01-15T06:36:48.401Z,55038.22
2023-01-15T06:39:16.854Z,54960.66
2023-01-15T06:42:02.913Z,54922.84
2023-01-15T06:44:48.782Z,54869.16
2023-01-15T06:47:23.269Z,54891.03
2023-01-15T06:49:56.165Z,54795.56
2023-01-15T06:52:25.724Z,54769.72
2023-01-15T06:54:54.903Z,54767.72
2023-01-15T06:57:23.575Z,54743.84
2023-01-15T06:59:53.041Z,54739.88
2023-01-15T07:02:22.670Z,54712.03
2023-01-15T07:04:51.224Z,54676.25
2023-01-15T07:07:23.575Z,54700.09
2023-01-15T07:09:52.363Z,54652.38
2023-01-15T07:12:21.025Z,54672.25
2023-01-15T07:14:49.721Z,54690.16
2023-01-15T07:17:18.240Z,54712.03
2023-01-15T07:19:47.442Z,54684.19
2023-01-15T07:22:16.064Z,54680.22
2023-01-15T07:24:46.083Z,54664.31
2023-01-15T07:27:14.514Z,54700.09
2023-01-15T07:29:43.085Z,54704.09
2023-01-15T07:32:12.410Z,54672.25
2023-01-15T07:34:40.749Z,54688.16
2023-01-15T07:37:09.222Z,54668.28
2023-01-15T07:39:37.653Z,54658.34
2023-01-15T07:42:24.880Z,54616.56
2023-01-15T07:45:11.016Z,54590.72
2023-01-15T07:47:58.202Z,54572.81
2023-01-15T07:50:26.780Z,54600.66
2023-01-15T07:52:55.513Z,54616.56
2023-01-15T07:55:24.901Z,54568.84
2023-01-15T07:57:54.718Z,54509.19
2023-01-15T08:00:25.756Z,54521.13
2023-01-15T08:02:54.283Z,54489.31
2023-01-15T08:05:23.035Z,54487.31
2023-01-15T08:07:51.686Z,54429.66
2023-01-15T08:10:20.916Z,54421.69
2023-01-15T08:13:09.022Z,54389.88
2023-01-15T08:15:44.151Z,54356.06
2023-01-15T08:18:12.728Z,54360.03
2023-01-15T08:20:41.246Z,54350.09
2023-01-15T08:23:10.862Z,54356.06
2023-01-15T08:25:39.357Z,54324.25
2023-01-15T08:28:07.891Z,54356.06
2023-01-15T08:30:37.107Z,54342.16
2023-01-15T08:33:07.188Z,54346.13
2023-01-15T08:35:35.728Z,54373.97
2023-01-15T08:38:08.548Z,54395.84
2023-01-15T08:40:57.466Z,54377.94
2023-01-15T08:43:26.094Z,54350.09
2023-01-15T08:45:58.003Z,54369.97
2023-01-15T08:48:29.571Z,54373.97
2023-01-15T08:50:58.366Z,54354.06
2023-01-15T08:53:26.800Z,54358.06
2023-01-15T08:55:55.283Z,54338.16
2023-01-15T08:58:23.849Z,54358.06
2023-01-15T09:00:52.302Z,54373.97
2023-01-15T09:03:20.773Z,54379.94
2023-01-15T09:05:50.506Z,54405.78
2023-01-15T09:08:20.369Z,54403.78
2023-01-15T09:10:48.988Z,54405.78
2023-01-15T09:13:17.588Z,54443.56
2023-01-15T09:15:46.034Z,54437.59
2023-01-15T09:18:19.188Z,54473.41
2023-01-15T09:20:48.534Z,54425.66
2023-01-15T09:23:18.580Z,54487.31
2023-01-15T09:25:53.513Z,54479.34
2023-01-15T09:28:22.324Z,54531.06
2023-01-15T09:30:50.932Z,54473.41
2023-01-15T09:33:19.465Z,54503.22
2023-01-15T09:35:49.246Z,54471.41
2023-01-15T09:38:22.088Z,54445.56
2023-01-15T09:40:52.870Z,54453.50
2023-01-15T09:43:50.198Z,54393.84
2023-01-15T09:46:26.693Z,54409.75
2023-01-15T09:49:04.775Z,54389.88
2023-01-15T09:51:41.319Z,54362.03
2023-01-15T09:54:35.449Z,54369.97
2023-01-15T10:05:47.456Z,54350.09
2023-01-15T10:08:21.146Z,54316.28
2023-01-15T10:10:56.453Z,54266.59
2023-01-15T10:13:32.827Z,54288.44
2023-01-15T10:16:01.934Z,54290.44
2023-01-15T10:18:31.109Z,54260.63
2023-01-15T10:21:11.123Z,54238.75
2023-01-15T10:23:46.238Z,54234.75
2023-01-15T10:26:21.358Z,54196.97
2023-01-15T10:29:04.867Z,54198.97
2023-01-15T10:31:45.913Z,54191.03
2023-01-15T10:34:38.788Z,54145.28
2023-01-15T10:37:12.300Z,54167.16
2023-01-15T10:39:50.481Z,54159.19
2023-01-15T10:42:33.789Z,54131.38
2023-01-15T10:45:08.690Z,54135.34
2023-01-15T10:47:39.559Z,54129.38
2023-01-15T10:50:19.390Z,54099.56
2023-01-15T10:52:52.795Z,54129.38
2023-01-15T10:55:27.713Z,54091.59
2023-01-15T10:58:10.411Z,54103.53
2023-01-15T11:00:41.474Z,54101.53
2023-01-15T11:03:18.358Z,54103.53
2023-01-15T11:05:47.254Z,54101.53
2023-01-15T11:09:06.799Z,54101.53
2023-01-15T11:11:47.008Z,54071.72
2023-01-15T11:14:34.317Z,54051.81
2023-01-15T11:17:21.198Z,54071.72
2023-01-15T11:19:54.265Z,54051.81
2023-01-15T11:22:23.083Z,54075.69
2023-01-15T11:25:04.555Z,54091.59
2023-01-15T11:27:35.318Z,54097.56
2023-01-15T11:30:08.570Z,54087.63
2023-01-15T11:32:38.357Z,54047.84
2023-01-15T11:35:17.935Z,54067.75
2023-01-15T11:37:46.542Z,54083.66
2023-01-15T11:40:19.238Z,54024.00
2023-01-15T11:43:05.836Z,54067.75
2023-01-15T11:45:54.041Z,54075.69
2023-01-15T11:48:42.372Z,54053.81
2023-01-15T12:12:52.768Z,54018.03
2023-01-15T12:15:34.756Z,54004.09
2023-01-15T12:18:30.617Z,53976.28
2023-01-15T12:21:05.378Z,54000.13
2023-01-15T12:24:04.279Z,54000.13
2023-01-15T12:26:35.140Z,54020.00
2023-01-15T12:29:13.277Z,53980.25
2023-01-15T12:31:48.081Z,53992.19
2023-01-15T12:34:23.981Z,54008.09
2023-01-15T12:36:56.346Z,53964.34
2023-01-15T12:39:31.767Z,53992.19
2023-01-15T12:42:22.062Z,53996.16
2023-01-15T12:45:05.460Z,54004.09
2023-01-15T12:47:42.287Z,54016.03
2023-01-15T12:50:31.019Z,54027.97
2023-01-15T12:53:07.483Z,53984.22
2023-01-15T12:55:42.913Z,54008.09
2023-01-15T12:58:21.433Z,54004.09
2023-01-15T13:00:55.050Z,54008.09
2023-01-15T13:03:30.386Z,54025.97
2023-01-15T13:06:01.943Z,54010.06
2023-01-15T13:08:35.646Z,54016.03
2023-01-15T13:11:05.198Z,54027.97
2023-01-15T13:13:37.466Z,54012.06
2023-01-15T13:16:18.321Z,54006.09
2023-01-15T13:18:57.920Z,54047.84
2023-01-15T13:21:30.033Z,54012.06
2023-01-15T13:24:22.357Z,54027.97
2023-01-15T13:27:05.063Z,54035.91
2023-01-15T13:29:45.468Z,54008.09
2023-01-15T13:32:20.433Z,53984.22
2023-01-15T13:34:51.586Z,54016.03
2023-01-15T13:37:26.206Z,53980.25
2023-01-15T13:39:59.239Z,54020.00
2023-01-15T13:42:36.135Z,54010.06
2023-01-15T13:45:26.797Z,54020.00
2023-01-15T13:48:01.840Z,54010.06
2023-01-15T13:50:33.092Z,53992.19
2023-01-15T13:53:05.152Z,53986.22
2023-01-15T13:55:35.820Z,53994.16
2023-01-15T13:58:04.410Z,54008.09
2023-01-15T14:00:36.259Z,53992.19
2023-01-15T14:03:28.779Z,54000.13
2023-01-15T14:05:58.807Z,54002.13
2023-01-15T14:08:29.757Z,54016.03
2023-01-15T14:10:58.309Z,53996.16
2023-01-15T14:14:03.739Z,54025.97
2023-01-15T14:16:53.931Z,54020.00
2023-01-15T14:19:54.669Z,53990.19
2023-01-15T14:22:46.557Z,54016.03
2023-01-15T14:25:41.681Z,54024.00
2023-01-15T14:31:35.897Z,54020.00
2023-01-15T14:34:18.825Z,53980.25
2023-01-15T14:36:57.542Z,54002.13
2023-01-15T14:39:30.617Z,54016.03
2023-01-15T14:42:23.760Z,54020.00
2023-01-15T14:45:06.149Z,54027.97
2023-01-15T14:47:38.197Z,54010.06
2023-01-15T14:50:33.885Z,54029.97
2023-01-15T14:53:23.172Z,54029.97
2023-01-15T14:55:54.997Z,54016.03
2023-01-15T14:58:35.579Z,53984.22
2023-01-15T15:01:15.892Z,54000.13
2023-01-15T15:03:52.186Z,54000.13
2023-01-15T15:06:22.497Z,54014.06
2023-01-15T15:08:55.369Z,54008.09
2023-01-15T15:11:47.979Z,54008.09
2023-01-15T15:14:19.124Z,54012.06
2023-01-15T15:16:53.946Z,54027.97
2023-01-15T15:19:29.644Z,54004.09
2023-01-15T15:22:01.495Z,54020.00
2023-01-15T15:24:35.230Z,54012.06
2023-01-15T15:27:18.008Z,54020.00
2023-01-15T15:29:47.281Z,54047.84
2023-01-15T15:32:19.024Z,54039.91
2023-01-15T15:34:51.342Z,54027.97
2023-01-15T15:37:21.784Z,54047.84
2023-01-15T15:39:56.320Z,54041.88
2023-01-15T15:42:44.924Z,54051.81
2023-01-15T15:45:39.028Z,54027.97
2023-01-15T15:48:31.295Z,54061.78
2023-01-15T15:51:00.267Z,54049.84
2023-01-15T15:53:28.759Z,54091.59
2023-01-15T15:56:00.827Z,54081.66
2023-01-15T15:58:35.399Z,54091.59
2023-01-15T16:01:05.361Z,54091.59
2023-01-15T16:03:34.811Z,54115.47
2023-01-15T16:06:06.011Z,54131.38
2023-01-15T16:08:36.373Z,54135.34
2023-01-15T16:11:10.452Z,54129.38
2023-01-15T16:13:44.412Z,54135.34
2023-01-15T16:16:16.771Z,54139.31
2023-01-15T16:18:48.395Z,54123.41
2023-01-15T16:21:20.572Z,54167.16
2023-01-15T16:23:57.734Z,54129.38
2023-01-15T16:26:36.196Z,54143.28
2023-01-15T16:29:06.778Z,54173.13
2023-01-15T16:31:36.310Z,54131.38
2023-01-15T16:34:07.260Z,54125.41
2023-01-15T16:36:41.624Z,54145.28
2023-01-15T16:39:22.253Z,54127.38
2023-01-15T16:41:54.575Z,54127.38
2023-01-15T16:44:28.728Z,54087.63
2023-01-15T16:47:00.437Z,54143.28
2023-01-15T16:49:30.285Z,54121.41
2023-01-15T16:51:59.980Z,54127.38
2023-01-15T16:54:46.448Z,54081.66
2023-01-15T16:57:35.326Z,54087.63
2023-01-15T17:00:07.691Z,54123.41
2023-01-15T17:02:45.752Z,54121.41
2023-01-15T17:05:23.312Z,54127.38
2023-01-15T17:07:54.488Z,54099.56
2023-01-15T17:10:28.064Z,54077.69
2023-01-15T17:12:57.897Z,54115.47
2023-01-15T17:15:42.447Z,54135.34
2023-01-15T17:18:23.231Z,54119.44
2023-01-15T17:20:52.064Z,54123.41
2023-01-15T17:23:25.448Z,54119.44
2023-01-15T17:25:55.115Z,54061.78
2023-01-15T17:28:26.057Z,54099.56
2023-01-15T17:30:59.252Z,54119.44
2023-01-15T17:33:27.864Z,54099.56
2023-01-15T17:35:58.551Z,54123.41
2023-01-15T17:38:27.357Z,54075.69
2023-01-15T17:40:57.877Z,54063.75
2023-01-15T17:43:27.755Z,54095.56
2023-01-15T17:45:56.418Z,54125.41
2023-01-15T17:48:24.883Z,54093.59
2023-01-15T17:50:54.605Z,54079.66
2023-01-15T17:53:23.123Z,54087.63
2023-01-15T17:56:09.315Z,54115.47
2023-01-15T17:58:56.737Z,54083.66
2023-01-15T18:01:59.633Z,54105.50
2023-01-15T18:04:49.431Z,54099.56
2023-01-15T18:07:21.637Z,54097.56
2023-01-15T18:09:53.019Z,54139.31
2023-01-15T18:12:21.619Z,54101.53
2023-01-15T18:14:51.629Z,54137.34
2023-01-15T18:17:20.441Z,54107.50
2023-01-15T18:19:48.948Z,54075.69
2023-01-15T18:22:19.040Z,54099.56
2023-01-15T18:24:47.830Z,54127.38
2023-01-15T18:27:16.331Z,54127.38
2023-01-15T18:29:44.818Z,54139.31
2023-01-15T18:32:14.958Z,54103.53
2023-01-15T18:34:43.386Z,54127.38
2023-01-15T18:37:13.370Z,54157.22
2023-01-15T18:39:41.836Z,54165.16
2023-01-15T18:42:29.271Z,54175.13
2023-01-15T18:45:15.570Z,54165.16
2023-01-15T18:47:45.426Z,54161.19
2023-01-15T18:50:14.068Z,54163.19
2023-01-15T18:52:51.958Z,54200.97
2023-01-15T18:55:21.792Z,54200.97
2023-01-15T18:57:50.248Z,54177.09
2023-01-15T19:00:19.658Z,54238.75
2023-01-15T19:02:49.727Z,54220.84
2023-01-15T19:05:19.973Z,54198.97
2023-01-15T19:07:48.799Z,54222.84
2023-01-15T19:10:18.703Z,54206.94
2023-01-15T19:12:47.576Z,54230.78
2023-01-15T19:15:35.960Z,54248.69
2023-01-15T19:18:20.857Z,54250.69
2023-01-15T19:20:49.916Z,54250.69
2023-01-15T19:23:18.438Z,54266.59
2023-01-15T19:25:49.693Z,54302.38
2023-01-15T19:28:20.448Z,54288.44
2023-01-15T19:31:07.468Z,54334.19
2023-01-15T19:33:37.908Z,54358.06
2023-01-15T19:36:09.633Z,54395.84
2023-01-15T19:38:39.627Z,54389.88
2023-01-15T19:41:30.036Z,54433.63
2023-01-15T19:44:16.013Z,54445.56
2023-01-15T19:47:02.321Z,54471.41
2023-01-15T19:49:53.730Z,54505.22
2023-01-15T19:52:38.794Z,54521.13
2023-01-15T19:55:10.893Z,54572.81
2023-01-15T19:57:39.747Z,54644.41
2023-01-15T20:00:10.719Z,54668.28
2023-01-15T20:02:40.203Z,54710.06
2023-01-15T20:05:12.043Z,54712.03
2023-01-15T20:07:41.843Z,54721.97
2023-01-15T20:10:13.036Z,54696.13
2023-01-15T20:12:59.278Z,54718.00
2023-01-15T20:15:28.257Z,54716.00
2023-01-15T20:17:57.933Z,54712.03
2023-01-15T20:20:28.061Z,54692.16
2023-01-15T20:22:57.985Z,54654.38
2023-01-15T20:25:27.426Z,54634.47
2023-01-15T20:27:56.749Z,54634.47
2023-01-15T20:30:26.575Z,54533.06
2023-01-15T20:32:57.123Z,54578.78
2023-01-15T20:35:31.447Z,54485.31
2023-01-15T20:38:00.671Z,54477.38
2023-01-15T20:40:30.087Z,54459.47
2023-01-15T20:43:16.385Z,54431.63
2023-01-15T20:45:45.144Z,54409.75
2023-01-15T20:48:31.328Z,54381.91
2023-01-15T20:51:11.825Z,54346.13
2023-01-15T20:53:41.903Z,54290.44
2023-01-15T20:56:14.699Z,54326.25
2023-01-15T20:58:43.936Z,54270.56
2023-01-15T21:01:13.401Z,54294.41
2023-01-15T21:03:41.910Z,54278.50
2023-01-15T21:06:11.899Z,54238.75
2023-01-15T21:08:42.288Z,54276.53
2023-01-15T21:11:10.945Z,54284.47
2023-01-15T21:13:44.879Z,54332.19
2023-01-15T21:16:15.492Z,54316.28
2023-01-15T21:18:45.335Z,54306.34
2023-01-15T21:21:17.241Z,54282.50
2023-01-15T21:23:46.561Z,54330.22
2023-01-15T21:26:16.559Z,54306.34
2023-01-15T21:28:45.574Z,54304.38
2023-01-15T21:31:15.417Z,54328.22
2023-01-15T21:33:44.121Z,54304.38
2023-01-15T21:36:15.935Z,54308.34
2023-01-15T21:38:50.624Z,54318.28
2023-01-15T21:41:19.403Z,54318.28
2023-01-15T21:44:05.813Z,54306.34
2023-01-15T21:46:34.729Z,54326.25
2023-01-15T21:49:03.395Z,54381.91
2023-01-15T21:51:33.306Z,54344.13
2023-01-15T21:54:01.873Z,54330.22
2023-01-15T21:56:33.477Z,54381.91
2023-01-15T21:59:02.188Z,54371.97
2023-01-15T22:01:30.663Z,54403.78
2023-01-15T22:03:59.278Z,54362.03
2023-01-15T22:06:27.666Z,54417.72
2023-01-15T22:08:57.773Z,54419.69
2023-01-15T22:11:43.666Z,54403.78
2023-01-15T22:14:14.214Z,54409.75
2023-01-15T22:16:43.389Z,54401.81
2023-01-15T22:19:15.063Z,54401.81
2023-01-15T22:21:43.535Z,54409.75
2023-01-15T22:24:13.473Z,54389.88
2023-01-15T22:26:43.617Z,54350.09
2023-01-15T22:29:12.249Z,54350.09
2023-01-15T22:31:41.350Z,54354.06
2023-01-15T22:34:10.101Z,54366.00
2023-01-15T22:36:38.498Z,54395.84
2023-01-15T22:39:06.968Z,54441.56
2023-01-15T22:41:54.358Z,54501.22
2023-01-15T22:44:22.931Z,54521.13
2023-01-15T22:46:54.084Z,54570.84
2023-01-15T22:49:22.867Z,54602.66
2023-01-15T22:51:52.082Z,54650.38
2023-01-15T22:54:21.115Z,54662.31
2023-01-15T22:56:51.012Z,54682.22
2023-01-15T22:59:19.940Z,54704.09
2023-01-15T23:01:48.839Z,54731.94
2023-01-15T23:04:20.214Z,54767.72
2023-01-15T23:06:51.105Z,54819.44
2023-01-15T23:09:20.410Z,54899.00
2023-01-15T23:11:51.448Z,54992.47
2023-01-15T23:14:21.313Z,54976.56
2023-01-15T23:16:50.475Z,55034.22
2023-01-15T23:19:19.885Z,55087.94
2023-01-15T23:21:48.474Z,55125.72
2023-01-15T23:24:16.994Z,55207.28
2023-01-15T23:26:45.497Z,55310.72
2023-01-15T23:29:15.329Z,55404.19
2023-01-15T23:31:43.806Z,55428.06
2023-01-15T23:34:12.628Z,55477.81
2023-01-15T23:36:41.042Z,55523.56
2023-01-15T23:39:09.975Z,55650.88
2023-01-15T23:41:55.506Z,55694.63
2023-01-15T23:44:42.739Z,55730.44
2023-01-15T23:47:11.147Z,55802.06
2023-01-15T23:49:39.625Z,55802.06
2023-01-15T23:52:08.190Z,55853.78
2023-01-15T23:54:36.634Z,55871.69
2023-01-15T23:57:08.030Z,55921.44
2023-01-15T23:59:38.165Z,56032.84
